sensor_id;sensor_type;location;lat;lon;timestamp;P1;durP1;ratioP1;P2;durP2;ratioP2
25207;SDS011;13153;52.316;21.166;2023-02-15T00:01:40;76.35;;;41.05;;
25207;SDS011;13153;52.316;21.166;2023-02-15T00:04:08;76.57;;;42.40;;
25207;SDS011;13153;52.316;21.166;2023-02-15T00:06:37;84.55;;;42.75;;
25207;SDS011;13153;52.316;21.166;2023-02-15T00:09:03;73.60;;;42.58;;
25207;SDS011;13153;52.316;21.166;2023-02-15T00:11:29;77.13;;;42.08;;
25207;SDS011;13153;52.316;21.166;2023-02-15T00:14:25;79.88;;;43.03;;
25207;SDS011;13153;52.316;21.166;2023-02-15T00:16:51;78.50;;;41.90;;
25207;SDS011;13153;52.316;21.166;2023-02-15T00:19:19;75.55;;;41.50;;
25207;SDS011;13153;52.316;21.166;2023-02-15T00:21:46;80.18;;;42.97;;
25207;SDS011;13153;52.316;21.166;2023-02-15T00:24:14;80.15;;;43.45;;
25207;SDS011;13153;52.316;21.166;2023-02-15T00:26:43;74.38;;;41.60;;
25207;SDS011;13153;52.316;21.166;2023-02-15T00:29:10;75.80;;;42.38;;
25207;SDS011;13153;52.316;21.166;2023-02-15T00:31:38;82.32;;;44.08;;
25207;SDS011;13153;52.316;21.166;2023-02-15T00:34:14;81.90;;;41.10;;
25207;SDS011;13153;52.316;21.166;2023-02-15T00:36:46;75.68;;;40.97;;
25207;SDS011;13153;52.316;21.166;2023-02-15T00:39:12;80.30;;;43.47;;
25207;SDS011;13153;52.316;21.166;2023-02-15T00:41:40;76.88;;;42.10;;
25207;SDS011;13153;52.316;21.166;2023-02-15T00:44:07;77.85;;;41.47;;
25207;SDS011;13153;52.316;21.166;2023-02-15T00:46:34;78.93;;;43.13;;
25207;SDS011;13153;52.316;21.166;2023-02-15T00:49:00;78.03;;;42.85;;
25207;SDS011;13153;52.316;21.166;2023-02-15T00:51:28;80.07;;;40.90;;
25207;SDS011;13153;52.316;21.166;2023-02-15T00:53:54;80.03;;;44.13;;
25207;SDS011;13153;52.316;21.166;2023-02-15T00:56:20;75.30;;;40.97;;
25207;SDS011;13153;52.316;21.166;2023-02-15T00:58:46;80.05;;;42.17;;
25207;SDS011;13153;52.316;21.166;2023-02-15T01:01:13;77.20;;;41.78;;
25207;SDS011;13153;52.316;21.166;2023-02-15T01:03:44;77.25;;;41.95;;
25207;SDS011;13153;52.316;21.166;2023-02-15T01:06:14;76.22;;;41.47;;
25207;SDS011;13153;52.316;21.166;2023-02-15T01:08:41;76.60;;;42.63;;
25207;SDS011;13153;52.316;21.166;2023-02-15T01:11:09;79.75;;;43.22;;
25207;SDS011;13153;52.316;21.166;2023-02-15T01:13:39;76.00;;;42.47;;
25207;SDS011;13153;52.316;21.166;2023-02-15T01:16:06;74.10;;;42.20;;
25207;SDS011;13153;52.316;21.166;2023-02-15T01:18:33;75.93;;;42.28;;
25207;SDS011;13153;52.316;21.166;2023-02-15T01:21:00;78.05;;;43.15;;
25207;SDS011;13153;52.316;21.166;2023-02-15T01:23:40;79.57;;;42.47;;
25207;SDS011;13153;52.316;21.166;2023-02-15T01:26:07;83.15;;;42.92;;
25207;SDS011;13153;52.316;21.166;2023-02-15T01:28:34;79.60;;;42.58;;
25207;SDS011;13153;52.316;21.166;2023-02-15T01:31:04;82.15;;;44.80;;
25207;SDS011;13153;52.316;21.166;2023-02-15T01:36:02;74.68;;;41.38;;
25207;SDS011;13153;52.316;21.166;2023-02-15T01:38:29;79.88;;;43.55;;
25207;SDS011;13153;52.316;21.166;2023-02-15T01:40:55;78.28;;;41.22;;
25207;SDS011;13153;52.316;21.166;2023-02-15T01:43:41;82.18;;;43.03;;
25207;SDS011;13153;52.316;21.166;2023-02-15T01:46:09;80.60;;;42.67;;
25207;SDS011;13153;52.316;21.166;2023-02-15T01:48:39;80.03;;;44.33;;
25207;SDS011;13153;52.316;21.166;2023-02-15T01:51:13;79.43;;;41.47;;
25207;SDS011;13153;52.316;21.166;2023-02-15T01:53:47;78.93;;;41.88;;
25207;SDS011;13153;52.316;21.166;2023-02-15T01:56:23;79.68;;;43.38;;
25207;SDS011;13153;52.316;21.166;2023-02-15T01:58:54;85.47;;;43.10;;
25207;SDS011;13153;52.316;21.166;2023-02-15T02:01:26;79.40;;;43.22;;
25207;SDS011;13153;52.316;21.166;2023-02-15T02:04:04;82.45;;;43.70;;
25207;SDS011;13153;52.316;21.166;2023-02-15T02:06:47;85.28;;;45.05;;
25207;SDS011;13153;52.316;21.166;2023-02-15T02:09:16;80.05;;;43.22;;
25207;SDS011;13153;52.316;21.166;2023-02-15T02:11:42;81.03;;;44.13;;
25207;SDS011;13153;52.316;21.166;2023-02-15T02:14:12;85.57;;;44.40;;
25207;SDS011;13153;52.316;21.166;2023-02-15T02:26:12;77.47;;;42.92;;
25207;SDS011;13153;52.316;21.166;2023-02-15T02:28:17;81.00;;;43.63;;
25207;SDS011;13153;52.316;21.166;2023-02-15T02:33:54;80.13;;;44.70;;
25207;SDS011;13153;52.316;21.166;2023-02-15T02:39:42;84.68;;;44.75;;
25207;SDS011;13153;52.316;21.166;2023-02-15T02:45:25;90.15;;;46.15;;
25207;SDS011;13153;52.316;21.166;2023-02-15T02:48:05;90.20;;;45.45;;
25207;SDS011;13153;52.316;21.166;2023-02-15T02:50:39;85.63;;;45.38;;
25207;SDS011;13153;52.316;21.166;2023-02-15T02:53:06;84.53;;;44.40;;
25207;SDS011;13153;52.316;21.166;2023-02-15T02:55:46;75.60;;;43.83;;
25207;SDS011;13153;52.316;21.166;2023-02-15T03:01:13;88.53;;;46.47;;
25207;SDS011;13153;52.316;21.166;2023-02-15T03:03:52;88.68;;;46.58;;
25207;SDS011;13153;52.316;21.166;2023-02-15T03:06:45;82.13;;;46.55;;
25207;SDS011;13153;52.316;21.166;2023-02-15T03:09:28;86.65;;;45.55;;
25207;SDS011;13153;52.316;21.166;2023-02-15T03:12:28;84.03;;;45.00;;
25207;SDS011;13153;52.316;21.166;2023-02-15T03:15:01;84.57;;;44.95;;
25207;SDS011;13153;52.316;21.166;2023-02-15T03:18:14;85.57;;;44.72;;
25207;SDS011;13153;52.316;21.166;2023-02-15T03:20:45;85.07;;;46.20;;
25207;SDS011;13153;52.316;21.166;2023-02-15T03:23:16;85.93;;;45.20;;
25207;SDS011;13153;52.316;21.166;2023-02-15T03:25:57;85.60;;;46.00;;
25207;SDS011;13153;52.316;21.166;2023-02-15T03:28:35;86.13;;;46.38;;
25207;SDS011;13153;52.316;21.166;2023-02-15T03:31:08;84.65;;;44.63;;
25207;SDS011;13153;52.316;21.166;2023-02-15T03:33:48;83.05;;;44.50;;
25207;SDS011;13153;52.316;21.166;2023-02-15T03:36:22;79.30;;;43.05;;
25207;SDS011;13153;52.316;21.166;2023-02-15T03:39:04;80.22;;;44.05;;
25207;SDS011;13153;52.316;21.166;2023-02-15T03:41:49;78.82;;;42.95;;
25207;SDS011;13153;52.316;21.166;2023-02-15T03:44:27;78.97;;;42.58;;
25207;SDS011;13153;52.316;21.166;2023-02-15T03:52:28;81.45;;;43.78;;
25207;SDS011;13153;52.316;21.166;2023-02-15T03:54:57;77.07;;;42.60;;
25207;SDS011;13153;52.316;21.166;2023-02-15T03:57:24;80.85;;;42.67;;
25207;SDS011;13153;52.316;21.166;2023-02-15T04:00:17;81.05;;;43.22;;
25207;SDS011;13153;52.316;21.166;2023-02-15T04:05:41;79.75;;;43.55;;
25207;SDS011;13153;52.316;21.166;2023-02-15T04:08:09;72.88;;;42.10;;
25207;SDS011;13153;52.316;21.166;2023-02-15T04:10:37;79.65;;;42.22;;
25207;SDS011;13153;52.316;21.166;2023-02-15T04:13:21;75.85;;;41.15;;
25207;SDS011;13153;52.316;21.166;2023-02-15T04:15:49;70.18;;;38.55;;
25207;SDS011;13153;52.316;21.166;2023-02-15T04:18:28;72.63;;;38.03;;
25207;SDS011;13153;52.316;21.166;2023-02-15T04:21:21;70.88;;;38.13;;
25207;SDS011;13153;52.316;21.166;2023-02-15T04:24:07;70.50;;;38.95;;
25207;SDS011;13153;52.316;21.166;2023-02-15T04:26:53;68.93;;;37.63;;
25207;SDS011;13153;52.316;21.166;2023-02-15T04:29:19;71.32;;;40.30;;
25207;SDS011;13153;52.316;21.166;2023-02-15T04:31:47;68.50;;;39.05;;
25207;SDS011;13153;52.316;21.166;2023-02-15T04:34:14;71.68;;;39.33;;
25207;SDS011;13153;52.316;21.166;2023-02-15T04:36:40;69.22;;;39.03;;
25207;SDS011;13153;52.316;21.166;2023-02-15T04:39:07;71.68;;;39.40;;
25207;SDS011;13153;52.316;21.166;2023-02-15T04:41:33;68.45;;;39.83;;
25207;SDS011;13153;52.316;21.166;2023-02-15T04:43:59;68.13;;;38.90;;
25207;SDS011;13153;52.316;21.166;2023-02-15T04:46:25;71.97;;;39.88;;
25207;SDS011;13153;52.316;21.166;2023-02-15T04:48:52;67.88;;;38.90;;
25207;SDS011;13153;52.316;21.166;2023-02-15T04:51:19;71.75;;;39.85;;
25207;SDS011;13153;52.316;21.166;2023-02-15T04:53:45;68.82;;;38.97;;
25207;SDS011;13153;52.316;21.166;2023-02-15T04:56:11;75.90;;;39.95;;
25207;SDS011;13153;52.316;21.166;2023-02-15T04:58:36;66.53;;;37.65;;
25207;SDS011;13153;52.316;21.166;2023-02-15T05:01:06;76.30;;;41.25;;
25207;SDS011;13153;52.316;21.166;2023-02-15T05:03:33;68.60;;;38.25;;
25207;SDS011;13153;52.316;21.166;2023-02-15T05:06:00;66.15;;;37.85;;
25207;SDS011;13153;52.316;21.166;2023-02-15T05:08:26;67.25;;;36.78;;
25207;SDS011;13153;52.316;21.166;2023-02-15T05:10:51;66.70;;;37.63;;
25207;SDS011;13153;52.316;21.166;2023-02-15T05:13:17;70.47;;;37.22;;
25207;SDS011;13153;52.316;21.166;2023-02-15T05:15:50;64.85;;;36.67;;
25207;SDS011;13153;52.316;21.166;2023-02-15T05:18:17;68.07;;;37.73;;
25207;SDS011;13153;52.316;21.166;2023-02-15T05:20:45;80.53;;;41.10;;
25207;SDS011;13153;52.316;21.166;2023-02-15T05:23:11;78.10;;;41.13;;
25207;SDS011;13153;52.316;21.166;2023-02-15T05:25:37;73.35;;;38.53;;
25207;SDS011;13153;52.316;21.166;2023-02-15T05:28:22;61.92;;;33.45;;
25207;SDS011;13153;52.316;21.166;2023-02-15T05:31:02;59.50;;;32.00;;
25207;SDS011;13153;52.316;21.166;2023-02-15T05:33:30;61.90;;;32.92;;
25207;SDS011;13153;52.316;21.166;2023-02-15T05:35:57;57.38;;;30.42;;
25207;SDS011;13153;52.316;21.166;2023-02-15T05:38:23;60.85;;;32.15;;
25207;SDS011;13153;52.316;21.166;2023-02-15T05:40:52;51.97;;;30.83;;
25207;SDS011;13153;52.316;21.166;2023-02-15T05:43:19;55.65;;;30.42;;
25207;SDS011;13153;52.316;21.166;2023-02-15T05:45:46;59.47;;;30.45;;
25207;SDS011;13153;52.316;21.166;2023-02-15T05:48:14;60.40;;;32.88;;
25207;SDS011;13153;52.316;21.166;2023-02-15T05:50:40;63.55;;;33.20;;
25207;SDS011;13153;52.316;21.166;2023-02-15T05:53:06;61.70;;;32.72;;
25207;SDS011;13153;52.316;21.166;2023-02-15T05:55:32;59.90;;;31.35;;
25207;SDS011;13153;52.316;21.166;2023-02-15T05:57:58;59.17;;;32.03;;
25207;SDS011;13153;52.316;21.166;2023-02-15T06:00:24;58.75;;;32.17;;
25207;SDS011;13153;52.316;21.166;2023-02-15T06:02:50;61.28;;;31.13;;
25207;SDS011;13153;52.316;21.166;2023-02-15T06:05:16;61.35;;;33.15;;
25207;SDS011;13153;52.316;21.166;2023-02-15T06:07:42;59.75;;;32.38;;
25207;SDS011;13153;52.316;21.166;2023-02-15T06:10:09;61.95;;;32.05;;
25207;SDS011;13153;52.316;21.166;2023-02-15T06:12:35;58.95;;;33.05;;
25207;SDS011;13153;52.316;21.166;2023-02-15T06:15:02;60.03;;;33.00;;
25207;SDS011;13153;52.316;21.166;2023-02-15T06:17:29;61.03;;;33.05;;
25207;SDS011;13153;52.316;21.166;2023-02-15T06:19:54;65.65;;;33.97;;
25207;SDS011;13153;52.316;21.166;2023-02-15T06:22:20;65.00;;;35.20;;
25207;SDS011;13153;52.316;21.166;2023-02-15T06:24:47;64.35;;;34.92;;
25207;SDS011;13153;52.316;21.166;2023-02-15T06:27:13;68.07;;;35.38;;
25207;SDS011;13153;52.316;21.166;2023-02-15T06:29:38;63.78;;;34.60;;
25207;SDS011;13153;52.316;21.166;2023-02-15T06:32:04;65.85;;;34.85;;
25207;SDS011;13153;52.316;21.166;2023-02-15T06:34:30;62.35;;;34.22;;
25207;SDS011;13153;52.316;21.166;2023-02-15T06:36:57;63.20;;;34.78;;
25207;SDS011;13153;52.316;21.166;2023-02-15T06:39:23;63.90;;;34.95;;
25207;SDS011;13153;52.316;21.166;2023-02-15T06:41:48;61.67;;;33.63;;
25207;SDS011;13153;52.316;21.166;2023-02-15T06:44:14;65.57;;;34.08;;
25207;SDS011;13153;52.316;21.166;2023-02-15T06:46:40;62.38;;;34.83;;
25207;SDS011;13153;52.316;21.166;2023-02-15T06:49:06;60.58;;;33.53;;
25207;SDS011;13153;52.316;21.166;2023-02-15T06:51:31;59.15;;;32.78;;
25207;SDS011;13153;52.316;21.166;2023-02-15T06:53:58;55.53;;;31.55;;
25207;SDS011;13153;52.316;21.166;2023-02-15T06:56:25;63.67;;;33.58;;
25207;SDS011;13153;52.316;21.166;2023-02-15T06:58:50;59.83;;;33.15;;
25207;SDS011;13153;52.316;21.166;2023-02-15T07:01:17;65.65;;;33.70;;
25207;SDS011;13153;52.316;21.166;2023-02-15T07:03:43;59.47;;;31.40;;
25207;SDS011;13153;52.316;21.166;2023-02-15T07:06:10;63.30;;;33.28;;
25207;SDS011;13153;52.316;21.166;2023-02-15T07:08:36;61.63;;;33.65;;
25207;SDS011;13153;52.316;21.166;2023-02-15T07:11:04;62.15;;;33.42;;
25207;SDS011;13153;52.316;21.166;2023-02-15T07:13:50;61.60;;;32.83;;
25207;SDS011;13153;52.316;21.166;2023-02-15T07:16:17;63.72;;;34.10;;
25207;SDS011;13153;52.316;21.166;2023-02-15T07:18:44;64.05;;;34.53;;
25207;SDS011;13153;52.316;21.166;2023-02-15T07:21:09;61.58;;;34.10;;
25207;SDS011;13153;52.316;21.166;2023-02-15T07:23:36;64.70;;;34.33;;
25207;SDS011;13153;52.316;21.166;2023-02-15T07:26:03;68.00;;;34.38;;
25207;SDS011;13153;52.316;21.166;2023-02-15T07:28:31;69.50;;;34.90;;
25207;SDS011;13153;52.316;21.166;2023-02-15T07:31:00;70.95;;;35.17;;
25207;SDS011;13153;52.316;21.166;2023-02-15T07:33:30;65.03;;;35.42;;
25207;SDS011;13153;52.316;21.166;2023-02-15T07:35:58;63.83;;;35.63;;
25207;SDS011;13153;52.316;21.166;2023-02-15T07:38:29;67.88;;;35.03;;
25207;SDS011;13153;52.316;21.166;2023-02-15T07:41:01;72.35;;;37.03;;
25207;SDS011;13153;52.316;21.166;2023-02-15T07:43:34;69.22;;;35.63;;
25207;SDS011;13153;52.316;21.166;2023-02-15T07:46:05;63.90;;;34.63;;
25207;SDS011;13153;52.316;21.166;2023-02-15T07:48:35;59.45;;;33.30;;
25207;SDS011;13153;52.316;21.166;2023-02-15T07:51:02;64.32;;;35.25;;
25207;SDS011;13153;52.316;21.166;2023-02-15T07:53:31;79.82;;;38.13;;
25207;SDS011;13153;52.316;21.166;2023-02-15T07:56:02;73.05;;;37.83;;
25207;SDS011;13153;52.316;21.166;2023-02-15T07:58:31;74.47;;;37.88;;
25207;SDS011;13153;52.316;21.166;2023-02-15T08:04:02;69.13;;;36.33;;
25207;SDS011;13153;52.316;21.166;2023-02-15T08:06:31;65.03;;;33.47;;
25207;SDS011;13153;52.316;21.166;2023-02-15T08:09:03;67.18;;;34.83;;
25207;SDS011;13153;52.316;21.166;2023-02-15T08:11:36;62.25;;;32.55;;
25207;SDS011;13153;52.316;21.166;2023-02-15T08:14:06;64.40;;;34.17;;
25207;SDS011;13153;52.316;21.166;2023-02-15T08:16:35;65.38;;;32.85;;
25207;SDS011;13153;52.316;21.166;2023-02-15T08:19:22;64.78;;;34.42;;
25207;SDS011;13153;52.316;21.166;2023-02-15T08:21:57;59.83;;;31.15;;
25207;SDS011;13153;52.316;21.166;2023-02-15T08:24:33;56.83;;;31.23;;
25207;SDS011;13153;52.316;21.166;2023-02-15T08:27:05;59.33;;;33.17;;
25207;SDS011;13153;52.316;21.166;2023-02-15T08:29:34;58.78;;;33.17;;
25207;SDS011;13153;52.316;21.166;2023-02-15T08:32:04;55.50;;;30.25;;
25207;SDS011;13153;52.316;21.166;2023-02-15T08:34:37;61.70;;;32.92;;
25207;SDS011;13153;52.316;21.166;2023-02-15T08:37:05;60.28;;;31.77;;
25207;SDS011;13153;52.316;21.166;2023-02-15T08:39:32;62.80;;;33.72;;
25207;SDS011;13153;52.316;21.166;2023-02-15T08:41:58;64.63;;;35.22;;
25207;SDS011;13153;52.316;21.166;2023-02-15T08:44:24;61.55;;;34.05;;
25207;SDS011;13153;52.316;21.166;2023-02-15T08:46:50;64.80;;;34.67;;
25207;SDS011;13153;52.316;21.166;2023-02-15T08:49:17;64.30;;;35.03;;
25207;SDS011;13153;52.316;21.166;2023-02-15T08:51:46;62.22;;;33.35;;
25207;SDS011;13153;52.316;21.166;2023-02-15T08:54:14;59.00;;;34.00;;
25207;SDS011;13153;52.316;21.166;2023-02-15T08:56:43;59.55;;;33.10;;
25207;SDS011;13153;52.316;21.166;2023-02-15T08:59:11;68.38;;;35.33;;
25207;SDS011;13153;52.316;21.166;2023-02-15T09:01:44;64.32;;;34.53;;
25207;SDS011;13153;52.316;21.166;2023-02-15T09:04:11;62.10;;;33.70;;
25207;SDS011;13153;52.316;21.166;2023-02-15T09:06:38;60.90;;;33.83;;
25207;SDS011;13153;52.316;21.166;2023-02-15T09:09:06;62.05;;;33.70;;
25207;SDS011;13153;52.316;21.166;2023-02-15T09:11:34;62.05;;;33.13;;
25207;SDS011;13153;52.316;21.166;2023-02-15T09:14:04;61.22;;;33.70;;
25207;SDS011;13153;52.316;21.166;2023-02-15T09:16:34;59.30;;;32.28;;
25207;SDS011;13153;52.316;21.166;2023-02-15T09:19:03;65.53;;;33.42;;
25207;SDS011;13153;52.316;21.166;2023-02-15T09:21:31;65.68;;;35.80;;
25207;SDS011;13153;52.316;21.166;2023-02-15T09:24:00;63.50;;;33.85;;
25207;SDS011;13153;52.316;21.166;2023-02-15T09:26:31;59.80;;;33.50;;
25207;SDS011;13153;52.316;21.166;2023-02-15T09:29:00;65.75;;;34.22;;
25207;SDS011;13153;52.316;21.166;2023-02-15T09:31:29;68.13;;;34.80;;
25207;SDS011;13153;52.316;21.166;2023-02-15T09:33:59;61.80;;;33.72;;
25207;SDS011;13153;52.316;21.166;2023-02-15T09:36:28;65.30;;;35.85;;
25207;SDS011;13153;52.316;21.166;2023-02-15T09:50:50;69.47;;;37.42;;
25207;SDS011;13153;52.316;21.166;2023-02-15T09:56:39;74.82;;;37.67;;
25207;SDS011;13153;52.316;21.166;2023-02-15T10:14:12;64.13;;;31.90;;
25207;SDS011;13153;52.316;21.166;2023-02-15T10:17:59;66.45;;;32.20;;
25207;SDS011;13153;52.316;21.166;2023-02-15T10:31:20;63.33;;;31.77;;
25207;SDS011;13153;52.316;21.166;2023-02-15T10:39:29;51.10;;;26.73;;
25207;SDS011;13153;52.316;21.166;2023-02-15T10:47:59;50.72;;;28.30;;
25207;SDS011;13153;52.316;21.166;2023-02-15T10:51:02;57.42;;;29.50;;
25207;SDS011;13153;52.316;21.166;2023-02-15T10:59:54;69.20;;;33.72;;
25207;SDS011;13153;52.316;21.166;2023-02-15T11:02:37;63.95;;;32.13;;
25207;SDS011;13153;52.316;21.166;2023-02-15T11:08:22;55.63;;;27.85;;
25207;SDS011;13153;52.316;21.166;2023-02-15T11:10:55;53.53;;;28.05;;
25207;SDS011;13153;52.316;21.166;2023-02-15T11:13:29;62.80;;;30.50;;
25207;SDS011;13153;52.316;21.166;2023-02-15T11:16:17;59.35;;;30.48;;
25207;SDS011;13153;52.316;21.166;2023-02-15T11:18:54;57.80;;;28.73;;
25207;SDS011;13153;52.316;21.166;2023-02-15T11:21:27;56.45;;;27.58;;
25207;SDS011;13153;52.316;21.166;2023-02-15T11:24:10;61.10;;;30.73;;
25207;SDS011;13153;52.316;21.166;2023-02-15T11:29:40;66.95;;;31.23;;
25207;SDS011;13153;52.316;21.166;2023-02-15T11:34:51;58.78;;;28.75;;
25207;SDS011;13153;52.316;21.166;2023-02-15T11:37:37;62.72;;;32.03;;
25207;SDS011;13153;52.316;21.166;2023-02-15T11:40:30;63.25;;;31.65;;
25207;SDS011;13153;52.316;21.166;2023-02-15T11:43:16;61.83;;;31.08;;
25207;SDS011;13153;52.316;21.166;2023-02-15T11:46:25;58.40;;;29.73;;
25207;SDS011;13153;52.316;21.166;2023-02-15T11:48:51;57.25;;;29.50;;
25207;SDS011;13153;52.316;21.166;2023-02-15T11:51:18;56.72;;;29.30;;
25207;SDS011;13153;52.316;21.166;2023-02-15T11:53:47;64.22;;;31.73;;
25207;SDS011;13153;52.316;21.166;2023-02-15T11:56:18;59.40;;;30.60;;
25207;SDS011;13153;52.316;21.166;2023-02-15T12:01:52;56.35;;;28.60;;
25207;SDS011;13153;52.316;21.166;2023-02-15T12:04:20;58.83;;;28.80;;
25207;SDS011;13153;52.316;21.166;2023-02-15T12:09:59;56.03;;;28.88;;
25207;SDS011;13153;52.316;21.166;2023-02-15T12:12:29;57.70;;;28.77;;
25207;SDS011;13153;52.316;21.166;2023-02-15T12:15:04;55.00;;;28.60;;
25207;SDS011;13153;52.316;21.166;2023-02-15T12:17:54;56.25;;;26.85;;
25207;SDS011;13153;52.316;21.166;2023-02-15T12:23:02;53.70;;;26.30;;
25207;SDS011;13153;52.316;21.166;2023-02-15T12:25:41;58.60;;;28.15;;
25207;SDS011;13153;52.316;21.166;2023-02-15T12:28:33;57.30;;;27.45;;
25207;SDS011;13153;52.316;21.166;2023-02-15T12:31:26;60.67;;;26.55;;
25207;SDS011;13153;52.316;21.166;2023-02-15T12:34:02;59.95;;;28.13;;
25207;SDS011;13153;52.316;21.166;2023-02-15T12:36:42;50.88;;;25.38;;
25207;SDS011;13153;52.316;21.166;2023-02-15T12:39:17;57.78;;;26.98;;
25207;SDS011;13153;52.316;21.166;2023-02-15T12:44:20;55.67;;;28.35;;
25207;SDS011;13153;52.316;21.166;2023-02-15T12:47:33;55.30;;;28.55;;
25207;SDS011;13153;52.316;21.166;2023-02-15T12:50:03;57.60;;;28.13;;
25207;SDS011;13153;52.316;21.166;2023-02-15T12:52:41;56.63;;;28.45;;
25207;SDS011;13153;52.316;21.166;2023-02-15T13:00:48;57.22;;;29.20;;
25207;SDS011;13153;52.316;21.166;2023-02-15T13:04:06;61.63;;;30.33;;
25207;SDS011;13153;52.316;21.166;2023-02-15T13:06:55;57.72;;;28.02;;
25207;SDS011;13153;52.316;21.166;2023-02-15T13:11:56;54.92;;;27.92;;
25207;SDS011;13153;52.316;21.166;2023-02-15T13:14:35;56.55;;;27.27;;
25207;SDS011;13153;52.316;21.166;2023-02-15T13:17:03;56.70;;;27.60;;
25207;SDS011;13153;52.316;21.166;2023-02-15T13:19:36;51.60;;;27.10;;
25207;SDS011;13153;52.316;21.166;2023-02-15T13:22:14;58.28;;;28.75;;
25207;SDS011;13153;52.316;21.166;2023-02-15T13:25:01;57.67;;;28.80;;
25207;SDS011;13153;52.316;21.166;2023-02-15T13:27:38;56.30;;;28.23;;
25207;SDS011;13153;52.316;21.166;2023-02-15T13:30:13;54.47;;;27.55;;
25207;SDS011;13153;52.316;21.166;2023-02-15T13:32:57;62.33;;;29.20;;
25207;SDS011;13153;52.316;21.166;2023-02-15T13:35:31;59.15;;;28.33;;
25207;SDS011;13153;52.316;21.166;2023-02-15T13:41:12;60.42;;;29.75;;
25207;SDS011;13153;52.316;21.166;2023-02-15T13:47:07;59.90;;;29.15;;
25207;SDS011;13153;52.316;21.166;2023-02-15T14:01:48;115.72;;;34.90;;
25207;SDS011;13153;52.316;21.166;2023-02-15T14:18:51;67.75;;;31.27;;
25207;SDS011;13153;52.316;21.166;2023-02-15T14:21:59;67.53;;;31.92;;
25207;SDS011;13153;52.316;21.166;2023-02-15T14:25:18;68.60;;;33.67;;
25207;SDS011;13153;52.316;21.166;2023-02-15T14:28:21;65.55;;;31.70;;
25207;SDS011;13153;52.316;21.166;2023-02-15T14:31:04;66.57;;;32.20;;
25207;SDS011;13153;52.316;21.166;2023-02-15T14:33:43;69.55;;;32.15;;
25207;SDS011;13153;52.316;21.166;2023-02-15T14:36:20;66.82;;;30.60;;
25207;SDS011;13153;52.316;21.166;2023-02-15T14:38:55;83.13;;;37.47;;
25207;SDS011;13153;52.316;21.166;2023-02-15T14:41:53;74.47;;;35.80;;
25207;SDS011;13153;52.316;21.166;2023-02-15T14:47:11;67.85;;;32.25;;
25207;SDS011;13153;52.316;21.166;2023-02-15T14:49:58;69.55;;;31.55;;
25207;SDS011;13153;52.316;21.166;2023-02-15T14:58:54;66.22;;;30.25;;
25207;SDS011;13153;52.316;21.166;2023-02-15T15:01:31;70.93;;;33.67;;
25207;SDS011;13153;52.316;21.166;2023-02-15T15:04:45;70.15;;;32.33;;
25207;SDS011;13153;52.316;21.166;2023-02-15T15:07:19;69.22;;;32.30;;
25207;SDS011;13153;52.316;21.166;2023-02-15T15:09:58;72.25;;;33.03;;
25207;SDS011;13153;52.316;21.166;2023-02-15T15:12:40;72.65;;;33.72;;
25207;SDS011;13153;52.316;21.166;2023-02-15T15:15:51;72.88;;;33.78;;
25207;SDS011;13153;52.316;21.166;2023-02-15T15:21:51;74.20;;;34.42;;
25207;SDS011;13153;52.316;21.166;2023-02-15T15:35:32;80.90;;;37.67;;
25207;SDS011;13153;52.316;21.166;2023-02-15T15:50:15;83.45;;;38.80;;
25207;SDS011;13153;52.316;21.166;2023-02-15T15:52:46;84.68;;;39.10;;
25207;SDS011;13153;52.316;21.166;2023-02-15T15:55:19;90.28;;;39.72;;
25207;SDS011;13153;52.316;21.166;2023-02-15T15:57:53;86.15;;;37.85;;
25207;SDS011;13153;52.316;21.166;2023-02-15T16:00:40;90.38;;;42.20;;
25207;SDS011;13153;52.316;21.166;2023-02-15T16:05:50;85.53;;;38.75;;
25207;SDS011;13153;52.316;21.166;2023-02-15T16:08:36;88.78;;;38.58;;
25207;SDS011;13153;52.316;21.166;2023-02-15T16:11:17;79.57;;;34.35;;
25207;SDS011;13153;52.316;21.166;2023-02-15T16:13:49;82.07;;;36.10;;
25207;SDS011;13153;52.316;21.166;2023-02-15T16:16:19;77.55;;;35.75;;
25207;SDS011;13153;52.316;21.166;2023-02-15T16:18:50;87.95;;;37.78;;
25207;SDS011;13153;52.316;21.166;2023-02-15T16:21:21;81.90;;;35.90;;
25207;SDS011;13153;52.316;21.166;2023-02-15T16:24:03;83.82;;;36.15;;
25207;SDS011;13153;52.316;21.166;2023-02-15T16:29:36;93.43;;;40.10;;
25207;SDS011;13153;52.316;21.166;2023-02-15T16:32:04;89.35;;;38.72;;
25207;SDS011;13153;52.316;21.166;2023-02-15T16:34:59;89.20;;;39.15;;
25207;SDS011;13153;52.316;21.166;2023-02-15T16:37:31;91.78;;;39.33;;
25207;SDS011;13153;52.316;21.166;2023-02-15T16:39:59;84.25;;;37.35;;
25207;SDS011;13153;52.316;21.166;2023-02-15T16:42:26;81.32;;;38.17;;
25207;SDS011;13153;52.316;21.166;2023-02-15T16:44:57;87.00;;;38.30;;
25207;SDS011;13153;52.316;21.166;2023-02-15T16:47:41;96.40;;;45.58;;
25207;SDS011;13153;52.316;21.166;2023-02-15T16:52:58;83.50;;;38.50;;
25207;SDS011;13153;52.316;21.166;2023-02-15T16:55:27;84.78;;;38.10;;
25207;SDS011;13153;52.316;21.166;2023-02-15T16:58:02;90.00;;;38.47;;
25207;SDS011;13153;52.316;21.166;2023-02-15T17:00:32;87.30;;;39.40;;
25207;SDS011;13153;52.316;21.166;2023-02-15T17:03:22;93.35;;;41.85;;
25207;SDS011;13153;52.316;21.166;2023-02-15T17:16:49;68.43;;;33.33;;
25207;SDS011;13153;52.316;21.166;2023-02-15T17:22:17;76.38;;;35.03;;
25207;SDS011;13153;52.316;21.166;2023-02-15T17:24:57;81.38;;;34.95;;
25207;SDS011;13153;52.316;21.166;2023-02-15T17:27:29;72.18;;;32.97;;
25207;SDS011;13153;52.316;21.166;2023-02-15T17:30:02;73.80;;;35.75;;
25207;SDS011;13153;52.316;21.166;2023-02-15T17:32:43;72.65;;;35.05;;
25207;SDS011;13153;52.316;21.166;2023-02-15T17:35:24;78.10;;;36.67;;
25207;SDS011;13153;52.316;21.166;2023-02-15T17:38:04;79.82;;;35.30;;
25207;SDS011;13153;52.316;21.166;2023-02-15T17:40:42;74.70;;;34.85;;
25207;SDS011;13153;52.316;21.166;2023-02-15T17:43:08;84.25;;;37.85;;
25207;SDS011;13153;52.316;21.166;2023-02-15T17:45:37;80.28;;;38.35;;
25207;SDS011;13153;52.316;21.166;2023-02-15T17:48:22;87.05;;;41.47;;
25207;SDS011;13153;52.316;21.166;2023-02-15T17:51:00;79.07;;;37.83;;
25207;SDS011;13153;52.316;21.166;2023-02-15T17:53:29;89.28;;;42.10;;
25207;SDS011;13153;52.316;21.166;2023-02-15T17:55:56;86.75;;;41.10;;
25207;SDS011;13153;52.316;21.166;2023-02-15T17:58:22;84.38;;;40.58;;
25207;SDS011;13153;52.316;21.166;2023-02-15T18:00:49;90.13;;;42.45;;
25207;SDS011;13153;52.316;21.166;2023-02-15T18:03:40;83.03;;;36.47;;
25207;SDS011;13153;52.316;21.166;2023-02-15T18:06:29;88.78;;;38.05;;
25207;SDS011;13153;52.316;21.166;2023-02-15T18:09:15;90.80;;;40.17;;
25207;SDS011;13153;52.316;21.166;2023-02-15T18:12:14;88.60;;;40.97;;
25207;SDS011;13153;52.316;21.166;2023-02-15T18:14:47;87.15;;;40.58;;
25207;SDS011;13153;52.316;21.166;2023-02-15T18:17:14;83.07;;;36.35;;
25207;SDS011;13153;52.316;21.166;2023-02-15T18:19:44;83.55;;;38.55;;